Time;durP1;ratioP1;P1;durP2;ratioP2;P2;SDS_P1;SDS_P2;PMS_P1;PMS_P2;Temp;Humidity;BMP_temperature;BMP_pressure;BME280_temperature;BME280_humidity;BME280_pressure;Samples;Min_cycle;Max_cycle;Signal;HPM_P1;HPM_P2
2021/06/21 00:01:38;;;;;;;6.55;2.88;;;;;;;23.16;53.58;99470.03;125458;1096;22881;-61
2021/06/21 00:04:10;;;;;;;7.80;2.48;;;;;;;23.13;53.48;99474.06;125467;1096;22800;-61
2021/06/21 00:06:42;;;;;;;8.03;2.38;;;;;;;23.09;53.96;99468.77;125876;1096;25964;-61
2021/06/21 00:09:14;;;;;;;6.63;2.13;;;;;;;23.04;53.87;99469.78;125373;1096;22785;-62
2021/06/21 00:11:49;;;;;;;7.60;2.37;;;;;;;23.01;53.91;99473.78;125457;1095;22879;-61
2021/06/21 00:14:21;;;;;;;6.75;2.13;;;;;;;22.96;54.22;99454.88;125580;1096;22800;-63
2021/06/21 00:16:52;;;;;;;6.43;2.05;;;;;;;22.93;54.08;99452.42;125379;1095;24187;-62
2021/06/21 00:19:27;;;;;;;6.05;2.05;;;;;;;22.88;54.20;99454.20;125562;1096;22803;-61
2021/06/21 00:22:00;;;;;;;7.30;2.17;;;;;;;22.84;54.40;99456.70;125634;1096;24470;-61
2021/06/21 00:24:31;;;;;;;7.33;2.53;;;;;;;22.81;54.24;99457.09;125701;1096;26299;-63
2021/06/21 00:27:03;;;;;;;9.57;2.50;;;;;;;22.76;54.64;99444.61;125456;1096;26688;-61
2021/06/21 00:29:35;;;;;;;5.05;2.20;;;;;;;22.74;54.71;99449.39;125625;1096;22809;-63
2021/06/21 00:32:09;;;;;;;7.40;2.50;;;;;;;22.71;54.71;99445.61;125458;1096;22803;-60
2021/06/21 00:34:41;;;;;;;7.60;2.45;;;;;;;22.69;54.80;99439.00;125648;1096;27227;-62
2021/06/21 00:37:13;;;;;;;7.83;2.33;;;;;;;22.66;54.79;99435.22;125622;1095;22860;-62
2021/06/21 00:39:45;;;;;;;8.75;2.40;;;;;;;22.64;55.01;99434.31;125565;1096;25851;-61
2021/06/21 00:42:17;;;;;;;7.90;2.68;;;;;;;22.63;55.00;99438.48;125385;1096;23475;-62
2021/06/21 00:44:48;;;;;;;6.70;2.77;;;;;;;22.58;55.02;99440.22;125674;1095;22802;-61
2021/06/21 00:47:20;;;;;;;6.10;2.20;;;;;;;22.56;54.92;99431.48;125600;1096;22809;-63
2021/06/21 00:49:51;;;;;;;8.33;2.50;;;;;;;22.55;55.12;99425.03;125300;1096;22774;-61
2021/06/21 00:52:23;;;;;;;6.93;2.60;;;;;;;22.53;55.57;99438.36;125566;1096;22780;-62
2021/06/21 00:55:01;;;;;;;9.53;2.58;;;;;;;22.50;55.33;99434.58;125743;1096;26293;-63
2021/06/21 00:57:33;;;;;;;7.37;2.33;;;;;;;22.47;55.61;99434.99;125708;1095;22774;-62
2021/06/21 01:00:09;;;;;;;9.30;2.75;;;;;;;22.42;55.51;99428.20;125680;1096;22803;-63
2021/06/21 01:02:42;;;;;;;6.93;2.63;;;;;;;22.40;55.53;99435.80;125652;1096;22792;-61
2021/06/21 01:05:16;;;;;;;8.90;2.50;;;;;;;22.36;55.58;99433.37;125642;1096;22803;-62
2021/06/21 01:07:49;;;;;;;6.90;2.33;;;;;;;22.34;55.76;99440.96;125690;1096;22798;-60
2021/06/21 01:10:25;;;;;;;7.33;2.78;;;;;;;22.31;55.84;99445.72;125610;1096;25881;-62
2021/06/21 01:13:29;;;;;;;8.45;2.90;;;;;;;22.29;56.01;99450.47;125685;1096;24541;-63
2021/06/21 01:16:11;;;;;;;8.55;2.70;;;;;;;22.25;56.32;99450.88;125148;1100;22880;-62
2021/06/21 01:18:51;;;;;;;6.55;2.45;;;;;;;22.24;56.38;99446.52;125319;1100;26274;-62
2021/06/21 01:21:57;;;;;;;8.30;3.13;;;;;;;22.22;56.20;99446.34;125048;1100;22809;-61
2021/06/21 01:25:00;;;;;;;5.93;2.30;;;;;;;22.20;56.24;99442.59;125114;1098;22844;-63
2021/06/21 01:27:51;;;;;;;8.23;3.30;;;;;;;22.19;56.59;99446.75;125075;1100;26283;-61
2021/06/21 01:30:27;;;;;;;10.73;3.13;;;;;;;22.17;56.55;99449.42;125291;1100;22807;-60
2021/06/21 01:33:02;;;;;;;12.03;3.05;;;;;;;22.13;56.73;99438.45;125226;1100;22816;-61
2021/06/21 01:35:37;;;;;;;7.23;2.83;;;;;;;22.13;57.01;99449.06;125211;1100;22779;-61
2021/06/21 01:38:14;;;;;;;6.58;2.80;;;;;;;22.10;56.67;99442.44;125045;1100;22822;-61
2021/06/21 01:40:48;;;;;;;8.58;2.85;;;;;;;22.07;56.74;99443.62;125254;1100;27199;-62
2021/06/21 01:43:22;;;;;;;6.95;2.63;;;;;;;22.06;56.80;99439.25;125213;1100;27907;-62
2021/06/21 01:45:54;;;;;;;8.13;3.73;;;;;;;22.04;57.18;99447.59;125345;1099;27448;-62
2021/06/21 01:48:27;;;;;;;7.90;2.83;;;;;;;22.01;57.18;99443.09;125083;1100;24490;-62
2021/06/21 01:51:01;;;;;;;8.53;2.80;;;;;;;21.97;57.03;99447.66;125207;1098;23159;-62
2021/06/21 01:53:37;;;;;;;10.18;3.90;;;;;;;21.96;57.45;99451.81;125298;1096;26717;-61
2021/06/21 01:56:14;;;;;;;10.08;3.18;;;;;;;21.94;57.34;99455.24;125592;1096;22807;-61
2021/06/21 01:58:49;;;;;;;9.20;3.68;;;;;;;21.91;57.62;99455.65;125706;1095;22810;-62
2021/06/21 02:01:21;;;;;;;8.83;3.00;;;;;;;21.88;57.71;99451.11;125586;1096;22799;-61
2021/06/21 02:03:55;;;;;;;10.83;4.00;;;;;;;21.84;57.83;99462.88;125662;1096;22781;-63
2021/06/21 02:06:30;;;;;;;9.13;3.90;;;;;;;21.81;57.88;99469.67;125994;1096;22809;-61
2021/06/21 02:09:06;;;;;;;9.08;3.65;;;;;;;21.79;57.82;99472.33;125431;1096;22783;-62
2021/06/21 02:11:39;;;;;;;8.35;3.80;;;;;;;21.75;58.06;99467.05;125678;1096;22803;-61
2021/06/21 02:14:11;;;;;;;10.35;3.95;;;;;;;21.73;58.26;99454.75;125698;1095;25999;-60
2021/06/21 02:16:42;;;;;;;9.83;4.10;;;;;;;21.71;58.31;99443.97;125605;1096;26271;-61
2021/06/21 02:19:15;;;;;;;11.65;4.53;;;;;;;21.69;58.59;99435.27;125487;1096;22788;-61
2021/06/21 02:21:49;;;;;;;14.18;5.48;;;;;;;21.67;58.45;99451.38;125636;1096;23533;-60
2021/06/21 02:24:22;;;;;;;14.15;5.10;;;;;;;21.62;58.49;99455.94;125621;1096;22780;-62
2021/06/21 02:26:54;;;;;;;17.25;5.58;;;;;;;21.56;58.60;99455.39;125642;1096;27220;-62
2021/06/21 02:29:27;;;;;;;12.37;5.40;;;;;;;21.52;59.06;99457.11;125608;1094;27686;-59
2021/06/21 02:32:00;;;;;;;12.90;4.47;;;;;;;21.49;59.04;99458.27;125489;1096;25340;-62
2021/06/21 02:34:32;;;;;;;9.08;4.63;;;;;;;21.46;59.12;99451.64;125681;1096;27202;-61
2021/06/21 02:37:05;;;;;;;12.17;5.00;;;;;;;21.37;59.38;99445.83;125916;1095;24596;-60
2021/06/21 02:39:36;;;;;;;13.13;4.80;;;;;;;21.29;59.46;99445.83;125654;1095;22804;-61
2021/06/21 02:42:09;;;;;;;10.48;4.73;;;;;;;21.24;59.22;99440.38;125641;1095;22800;-61
2021/06/21 02:44:41;;;;;;;11.45;4.30;;;;;;;21.19;59.33;99441.34;125670;1096;22814;-60
2021/06/21 02:47:14;;;;;;;9.15;3.83;;;;;;;21.12;59.42;99439.27;125611;1096;22773;-62
2021/06/21 02:49:46;;;;;;;9.98;4.15;;;;;;;21.08;59.99;99444.58;125759;1096;22829;-62
2021/06/21 02:52:28;;;;;;;11.45;4.35;;;;;;;21.07;59.87;99448.73;125767;1096;22954;-62
2021/06/21 02:55:09;;;;;;;15.93;5.03;;;;;;;21.06;59.81;99445.16;125309;1096;23282;-61
2021/06/21 02:57:52;;;;;;;11.03;3.97;;;;;;;21.04;59.84;99452.73;125709;1096;22807;-61
2021/06/21 03:00:25;;;;;;;15.33;4.60;;;;;;;21.00;60.13;99455.93;125700;1096;22777;-61
2021/06/21 03:02:58;;;;;;;10.90;4.50;;;;;;;21.00;60.27;99455.93;125429;1096;22843;-61
2021/06/21 03:05:32;;;;;;;10.93;5.00;;;;;;;21.00;60.34;99449.48;125551;1096;23068;-61
2021/06/21 03:08:05;;;;;;;11.55;4.45;;;;;;;21.00;60.51;99461.61;125635;1096;22774;-62
2021/06/21 03:10:40;;;;;;;11.03;4.77;;;;;;;20.96;60.33;99459.13;125517;1096;22807;-61
2021/06/21 03:13:14;;;;;;;10.15;5.38;;;;;;;20.95;60.86;99454.80;125702;1096;22800;-61
2021/06/21 03:15:46;;;;;;;12.10;5.40;;;;;;;20.94;60.96;99461.02;125701;1096;22809;-59
2021/06/21 03:18:19;;;;;;;13.23;6.20;;;;;;;20.92;60.99;99463.67;125647;1095;22800;-61
2021/06/21 03:20:54;;;;;;;12.75;5.43;;;;;;;20.90;61.02;99452.14;125648;1096;25348;-62
2021/06/21 03:23:27;;;;;;;11.45;5.73;;;;;;;20.89;61.11;99448.56;125898;1096;22890;-61
2021/06/21 03:26:00;;;;;;;14.10;5.33;;;;;;;20.88;61.40;99451.95;125600;1096;24324;-60
2021/06/21 03:28:33;;;;;;;11.73;5.50;;;;;;;20.88;61.49;99460.47;125609;1096;22834;-62
2021/06/21 03:31:08;;;;;;;11.93;5.00;;;;;;;20.87;61.54;99462.56;125895;1096;26017;-61
2021/06/21 03:33:40;;;;;;;16.35;5.40;;;;;;;20.86;61.82;99468.79;125768;1096;22792;-62
2021/06/21 03:36:12;;;;;;;11.80;5.18;;;;;;;20.87;61.72;99470.31;125643;1095;23500;-61
2021/06/21 03:38:44;;;;;;;13.83;5.98;;;;;;;20.88;61.41;99471.81;125678;1096;26296;-61
2021/06/21 03:41:16;;;;;;;14.68;6.15;;;;;;;20.89;61.65;99476.94;125594;1095;22928;-60
2021/06/21 03:43:48;;;;;;;15.53;5.85;;;;;;;20.90;62.08;99478.44;125693;1096;22814;-61
2021/06/21 03:46:19;;;;;;;15.43;6.83;;;;;;;20.90;62.16;99480.51;125652;1096;23322;-61
2021/06/21 03:48:52;;;;;;;13.70;6.10;;;;;;;20.91;62.51;99484.88;125701;1096;25883;-62
2021/06/21 03:51:24;;;;;;;15.83;6.10;;;;;;;20.88;62.79;99483.92;125709;1096;22947;-60
2021/06/21 03:53:55;;;;;;;14.58;6.08;;;;;;;20.88;62.85;99488.83;125413;1096;23242;-61
2021/06/21 03:56:27;;;;;;;12.13;5.57;;;;;;;20.84;62.86;99486.39;125508;1096;22817;-61
2021/06/21 03:58:58;;;;;;;12.55;5.18;;;;;;;20.88;63.06;99477.48;125485;1094;22799;-62
2021/06/21 04:01:31;;;;;;;15.05;6.20;;;;;;;20.94;63.30;99478.05;125573;1096;23457;-62
2021/06/21 04:04:03;;;;;;;15.25;5.45;;;;;;;21.01;62.84;99474.45;125724;1096;22804;-63
2021/06/21 04:06:35;;;;;;;16.53;6.97;;;;;;;21.09;62.93;99471.62;125679;1096;24442;-61
2021/06/21 04:09:06;;;;;;;13.45;6.03;;;;;;;21.18;63.48;99480.33;125496;1096;22783;-61
2021/06/21 04:11:38;;;;;;;13.90;6.95;;;;;;;21.24;63.41;99465.92;125604;1095;22834;-61
2021/06/21 04:14:12;;;;;;;14.47;6.80;;;;;;;21.31;63.64;99474.41;125701;1096;22815;-61
2021/06/21 04:16:44;;;;;;;11.73;5.68;;;;;;;21.41;63.62;99471.74;125635;1096;22810;-61
2021/06/21 04:19:16;;;;;;;12.30;5.87;;;;;;;21.49;63.52;99470.39;125391;1096;22773;-61
2021/06/21 04:21:47;;;;;;;15.83;6.13;;;;;;;21.61;63.76;99467.88;125727;1096;27658;-60
2021/06/21 04:24:18;;;;;;;19.43;7.60;;;;;;;21.70;63.67;99461.59;125621;1095;22804;-62
2021/06/21 04:26:50;;;;;;;16.35;6.78;;;;;;;21.79;63.61;99463.81;125570;1096;22791;-60
2021/06/21 04:29:23;;;;;;;16.03;7.30;;;;;;;21.87;64.03;99469.50;125662;1096;22782;-61
2021/06/21 04:31:54;;;;;;;14.85;6.75;;;;;;;21.94;63.88;99465.84;125731;1095;22809;-62
2021/06/21 04:34:26;;;;;;;18.13;7.45;;;;;;;22.03;63.36;99468.08;125566;1096;23335;-60
2021/06/21 04:36:57;;;;;;;14.70;6.83;;;;;;;22.09;63.44;99471.45;125559;1096;22755;-61
2021/06/21 04:39:29;;;;;;;17.48;7.13;;;;;;;22.13;63.63;99475.41;125573;1096;22777;-61
2021/06/21 04:42:02;;;;;;;16.03;7.53;;;;;;;22.25;63.54;99478.55;125488;1096;22800;-59
2021/06/21 04:44:34;;;;;;;14.53;7.30;;;;;;;22.36;63.54;99478.87;125556;1096;22777;-61
2021/06/21 04:47:06;;;;;;;16.63;8.48;;;;;;;22.43;63.77;99478.04;125415;1096;22783;-59
2021/06/21 04:49:38;;;;;;;15.60;7.03;;;;;;;22.50;63.58;99471.55;125652;1097;28948;-59
2021/06/21 04:52:12;;;;;;;16.95;8.03;;;;;;;22.63;63.47;99469.78;125583;1096;22821;-59
2021/06/21 04:54:44;;;;;;;17.57;7.37;;;;;;;22.75;63.23;99474.41;125721;1097;22950;-59
2021/06/21 04:57:16;;;;;;;16.30;8.20;;;;;;;22.85;63.21;99474.50;125536;1096;22787;-62
2021/06/21 04:59:47;;;;;;;15.13;7.20;;;;;;;22.93;63.39;99463.80;125612;1096;26346;-60
2021/06/21 05:02:19;;;;;;;14.48;6.98;;;;;;;23.01;63.39;99453.13;125376;1095;25688;-61
2021/06/21 05:04:51;;;;;;;15.33;7.13;;;;;;;23.12;63.20;99456.22;125354;1095;22804;-59
2021/06/21 05:07:24;;;;;;;17.80;7.58;;;;;;;23.24;63.13;99445.83;125503;1096;22806;-58
2021/06/21 05:10:15;;;;;;;17.90;8.03;;;;;;;23.37;62.85;99439.08;125478;1096;22877;-59
2021/06/21 05:13:00;;;;;;;16.70;7.80;;;;;;;23.51;62.41;99431.69;125145;1095;23609;-58
2021/06/21 05:15:32;;;;;;;17.95;7.48;;;;;;;23.63;62.25;99431.94;125702;1096;27220;-58
2021/06/21 05:18:03;;;;;;;17.38;6.98;;;;;;;23.72;62.30;99437.69;125378;1096;22777;-59
2021/06/21 05:20:34;;;;;;;14.50;6.55;;;;;;;23.81;62.36;99439.86;125348;1096;26667;-59
2021/06/21 05:23:07;;;;;;;16.95;6.85;;;;;;;23.92;61.74;99432.84;125329;1095;22772;-58
2021/06/21 05:25:38;;;;;;;20.67;7.73;;;;;;;24.07;61.81;99433.42;125277;1096;22806;-60
2021/06/21 05:28:10;;;;;;;18.70;7.05;;;;;;;24.21;61.30;99428.08;125526;1095;25890;-60
2021/06/21 05:30:44;;;;;;;17.57;7.57;;;;;;;24.31;60.93;99428.89;125599;1095;22790;-59
2021/06/21 05:33:16;;;;;;;17.43;6.95;;;;;;;24.41;60.72;99426.06;125753;1097;22810;-60
2021/06/21 05:35:49;;;;;;;15.58;7.43;;;;;;;24.50;60.74;99422.50;125593;1096;27645;-58
2021/06/21 05:38:21;;;;;;;17.83;6.75;;;;;;;24.60;60.49;99414.72;125462;1096;22854;-59
2021/06/21 05:40:52;;;;;;;16.45;6.95;;;;;;;24.70;60.50;99413.40;125584;1096;22796;-59
2021/06/21 05:43:24;;;;;;;13.40;6.73;;;;;;;24.79;60.38;99409.82;125540;1096;22863;-60
2021/06/21 05:45:56;;;;;;;15.68;6.88;;;;;;;24.86;60.23;99417.51;125511;1096;22791;-59
2021/06/21 05:48:27;;;;;;;18.03;6.30;;;;;;;24.92;60.30;99417.20;125383;1096;22761;-59
2021/06/21 05:51:01;;;;;;;18.93;7.43;;;;;;;25.04;59.92;99409.55;125519;1097;22870;-59
2021/06/21 05:53:33;;;;;;;20.85;8.08;;;;;;;25.15;59.70;99422.48;125394;1095;24201;-59
2021/06/21 05:56:04;;;;;;;22.60;7.67;;;;;;;25.17;59.41;99423.40;125524;1095;25884;-61
2021/06/21 05:58:36;;;;;;;20.08;6.65;;;;;;;25.22;59.83;99430.17;125482;1096;26531;-60
2021/06/21 06:01:07;;;;;;;17.18;7.45;;;;;;;25.25;59.48;99434.66;125431;1096;22791;-58
2021/06/21 06:03:39;;;;;;;16.07;7.97;;;;;;;25.33;59.26;99433.17;125579;1096;25896;-60
2021/06/21 06:06:11;;;;;;;16.08;7.20;;;;;;;25.43;59.04;99422.52;125487;1097;24505;-59
2021/06/21 06:08:42;;;;;;;13.43;7.08;;;;;;;25.51;58.86;99419.52;125477;1096;22864;-61
2021/06/21 06:11:13;;;;;;;15.05;7.15;;;;;;;25.56;58.93;99432.73;125490;1095;22781;-61
2021/06/21 06:13:46;;;;;;;15.98;7.83;;;;;;;25.62;58.74;99442.52;125510;1096;25848;-60
2021/06/21 06:16:18;;;;;;;16.58;6.93;;;;;;;25.68;58.44;99424.31;125346;1096;22829;-59
2021/06/21 06:18:49;;;;;;;16.75;6.83;;;;;;;25.81;58.03;99429.53;125494;1096;27092;-60
2021/06/21 06:21:21;;;;;;;14.03;6.28;;;;;;;25.93;57.82;99419.72;125692;1096;22773;-60
2021/06/21 06:23:52;;;;;;;16.35;7.68;;;;;;;25.99;57.60;99437.31;125679;1096;23496;-59
2021/06/21 06:26:25;;;;;;;11.20;6.15;;;;;;;25.98;57.43;99437.93;125529;1096;22758;-60
2021/06/21 06:28:57;;;;;;;14.98;7.53;;;;;;;26.03;57.62;99434.75;125444;1095;26319;-59
2021/06/21 06:31:28;;;;;;;13.13;6.75;;;;;;;26.15;57.58;99441.39;125779;1096;26939;-59
2021/06/21 06:34:00;;;;;;;15.18;7.03;;;;;;;26.22;57.29;99431.10;125531;1096;22864;-59
2021/06/21 06:36:31;;;;;;;11.68;7.23;;;;;;;26.28;57.22;99429.42;125810;1096;22778;-61
2021/06/21 06:39:04;;;;;;;14.93;7.40;;;;;;;26.37;57.13;99425.78;125721;1096;22780;-62
2021/06/21 06:41:36;;;;;;;13.68;6.60;;;;;;;26.46;57.18;99427.10;125796;1095;24596;-60
2021/06/21 06:44:09;;;;;;;15.45;8.08;;;;;;;26.54;56.55;99430.52;125769;1095;22761;-58
2021/06/21 06:46:42;;;;;;;17.37;7.30;;;;;;;26.59;56.45;99425.84;125774;1096;22791;-60
2021/06/21 06:49:14;;;;;;;15.58;7.30;;;;;;;26.68;56.46;99437.23;125865;1096;22858;-59
2021/06/21 06:51:51;;;;;;;13.50;7.03;;;;;;;26.76;56.29;99439.91;125771;1096;25886;-60
2021/06/21 06:54:26;;;;;;;13.93;6.55;;;;;;;26.84;55.93;99440.47;125780;1095;24906;-59
2021/06/21 06:57:01;;;;;;;19.43;7.70;;;;;;;26.95;56.08;99434.08;125539;1096;22801;-62
2021/06/21 06:59:34;;;;;;;16.73;7.18;;;;;;;27.05;56.06;99426.92;125578;1095;22781;-60
2021/06/21 07:02:08;;;;;;;14.63;7.03;;;;;;;27.16;55.70;99426.25;125757;1096;26732;-59
2021/06/21 07:04:40;;;;;;;17.18;7.23;;;;;;;27.29;55.37;99427.81;125846;1096;24442;-59
2021/06/21 07:07:12;;;;;;;14.25;7.10;;;;;;;27.39;55.44;99414.17;125744;1095;22773;-60
2021/06/21 07:09:44;;;;;;;14.18;6.83;;;;;;;27.48;54.78;99413.31;125769;1095;22880;-61
2021/06/21 07:12:17;;;;;;;13.45;7.20;;;;;;;27.46;54.39;99413.19;125754;1096;22873;-61
2021/06/21 07:14:49;;;;;;;15.08;6.88;;;;;;;27.50;54.99;99427.05;125739;1095;24478;-62
2021/06/21 07:17:22;;;;;;;18.23;8.28;;;;;;;27.58;54.62;99416.84;125718;1096;26354;-59
2021/06/21 07:19:53;;;;;;;15.08;7.25;;;;;;;27.66;54.40;99413.77;125844;1096;22803;-60
2021/06/21 07:22:25;;;;;;;14.05;7.65;;;;;;;27.76;54.42;99400.08;125745;1096;24439;-62
2021/06/21 07:24:58;;;;;;;18.00;6.93;;;;;;;27.87;54.23;99405.10;125561;1096;22810;-60
2021/06/21 07:27:29;;;;;;;15.53;6.43;;;;;;;28.01;54.20;99406.02;125983;1096;24501;-60
2021/06/21 07:30:04;;;;;;;16.18;6.65;;;;;;;28.08;53.87;99404.30;125770;1095;22858;-60
2021/06/21 07:32:35;;;;;;;17.43;7.63;;;;;;;28.17;53.80;99407.03;125656;1096;26255;-60
2021/06/21 07:35:09;;;;;;;17.98;8.83;;;;;;;28.23;53.39;99395.94;125747;1096;22761;-59
2021/06/21 07:37:40;;;;;;;16.23;7.53;;;;;;;28.33;53.16;99410.16;125809;1096;22981;-60
2021/06/21 07:40:15;;;;;;;14.85;7.50;;;;;;;28.43;52.72;99407.94;125751;1096;22921;-61
2021/06/21 07:42:47;;;;;;;15.73;6.85;;;;;;;28.49;52.58;99405.44;125927;1096;23761;-60
2021/06/21 07:45:19;;;;;;;15.73;7.57;;;;;;;28.54;52.78;99413.66;125842;1096;22838;-60
2021/06/21 07:47:57;;;;;;;17.38;7.48;;;;;;;28.66;52.68;99414.42;125780;1096;22783;-61
2021/06/21 07:50:31;;;;;;;17.30;6.83;;;;;;;28.75;52.26;99415.67;125761;1096;23031;-62
2021/06/21 07:53:03;;;;;;;18.30;7.10;;;;;;;28.84;51.91;99416.91;125831;1096;22868;-59
2021/06/21 07:55:36;;;;;;;17.55;7.05;;;;;;;28.90;52.13;99420.91;125710;1096;23038;-59
2021/06/21 07:58:07;;;;;;;13.63;6.40;;;;;;;29.00;51.78;99412.13;125835;1096;22767;-60
2021/06/21 08:00:40;;;;;;;14.28;6.88;;;;;;;29.10;51.81;99416.34;125640;1096;25855;-60
2021/06/21 08:03:12;;;;;;;14.88;6.43;;;;;;;29.20;51.60;99414.09;125705;1096;25914;-60
2021/06/21 08:05:48;;;;;;;13.47;6.57;;;;;;;29.29;51.25;99403.82;125523;1096;22928;-60
2021/06/21 08:08:20;;;;;;;12.18;6.70;;;;;;;29.33;50.41;99412.67;125619;1096;22876;-63
2021/06/21 08:10:52;;;;;;;13.30;6.93;;;;;;;29.33;50.28;99406.93;125697;1096;22822;-60
2021/06/21 08:13:24;;;;;;;14.23;7.10;;;;;;;29.40;50.36;99415.27;125617;1096;22890;-59
2021/06/21 08:15:58;;;;;;;13.95;5.95;;;;;;;29.52;50.26;99415.23;125695;1096;22800;-60
2021/06/21 08:18:31;;;;;;;13.73;6.40;;;;;;;29.63;50.02;99411.56;125812;1096;22856;-59
2021/06/21 08:21:04;;;;;;;12.95;5.85;;;;;;;29.72;49.88;99412.75;125638;1096;24637;-60
2021/06/21 08:23:36;;;;;;;12.38;6.43;;;;;;;29.79;49.09;99403.11;125615;1096;22804;-60
2021/06/21 08:26:09;;;;;;;14.25;5.58;;;;;;;29.81;49.17;99398.23;125672;1096;27259;-60
2021/06/21 08:28:41;;;;;;;13.05;5.88;;;;;;;29.89;49.51;99397.92;125699;1096;27250;-60
2021/06/21 08:31:12;;;;;;;15.63;6.33;;;;;;;29.95;48.94;99399.02;125660;1096;23421;-59
2021/06/21 08:33:44;;;;;;;12.58;6.23;;;;;;;30.07;49.08;99402.55;125647;1095;22786;-60
2021/06/21 08:36:15;;;;;;;14.37;6.40;;;;;;;30.21;48.60;99405.47;125676;1095;22805;-59
2021/06/21 08:38:48;;;;;;;14.10;6.47;;;;;;;30.31;48.25;99406.05;125575;1096;22815;-61
2021/06/21 08:41:22;;;;;;;13.43;6.43;;;;;;;30.37;48.31;99397.73;125780;1096;22776;-60
2021/06/21 08:43:54;;;;;;;12.83;5.95;;;;;;;30.49;48.07;99401.25;125686;1096;22826;-59
2021/06/21 08:46:26;;;;;;;14.88;5.50;;;;;;;30.59;47.49;99396.03;125765;1096;22899;-59
2021/06/21 08:48:58;;;;;;;18.28;6.10;;;;;;;30.65;47.41;99399.23;125612;1096;27583;-61
2021/06/21 08:51:31;;;;;;;14.28;6.30;;;;;;;30.73;47.71;99399.65;125879;1095;22829;-60
2021/06/21 08:54:03;;;;;;;12.70;6.10;;;;;;;30.75;46.89;99399.75;125648;1096;25851;-60
2021/06/21 08:56:34;;;;;;;14.00;5.68;;;;;;;30.79;46.85;99399.96;125751;1096;22861;-60
2021/06/21 08:59:09;;;;;;;16.53;5.95;;;;;;;30.91;47.14;99399.89;125813;1096;25881;-59
2021/06/21 09:01:43;;;;;;;12.35;6.15;;;;;;;30.97;46.90;99394.44;125434;1096;22812;-63
2021/06/21 09:04:14;;;;;;;12.73;5.68;;;;;;;31.00;46.44;99387.37;125833;1096;22828;-59
2021/06/21 09:06:46;;;;;;;15.60;6.08;;;;;;;31.01;45.89;99389.63;125759;1096;25945;-62
2021/06/21 09:09:17;;;;;;;12.00;5.53;;;;;;;31.05;46.27;99383.31;125770;1096;22870;-60
2021/06/21 09:11:55;;;;;;;11.95;5.85;;;;;;;31.16;46.47;99391.09;125810;1095;22804;-62
2021/06/21 09:14:38;;;;;;;14.85;5.98;;;;;;;31.23;46.40;99386.35;125950;1095;22783;-60
2021/06/21 09:17:12;;;;;;;11.30;4.65;;;;;;;31.30;45.76;99393.92;125647;1096;22864;-61
2021/06/21 09:19:51;;;;;;;11.93;4.60;;;;;;;31.40;45.43;99382.91;125859;1096;27529;-60
2021/06/21 09:22:30;;;;;;;12.33;5.13;;;;;;;31.52;45.52;99374.85;126208;1096;22811;-61
2021/06/21 09:25:01;;;;;;;;;;;;;;;31.60;44.64;99375.23;126273;1096;22783;-59
2021/06/21 09:27:36;;;;;;;9.43;3.47;;;;;;;31.68;43.67;99382.16;125933;1096;21556;-60
2021/06/21 09:30:11;;;;;;;10.60;3.35;;;;;;;31.73;42.99;99378.08;125800;1096;25851;-59
2021/06/21 09:32:46;;;;;;;9.08;3.10;;;;;;;31.73;43.23;99377.33;125787;1095;22861;-60
2021/06/21 09:35:42;;;;;;;10.25;3.65;;;;;;;31.80;42.61;99373.34;125724;1096;22819;-60
2021/06/21 09:38:20;;;;;;;9.20;2.80;;;;;;;31.89;42.48;99369.43;125698;1096;22858;-60
2021/06/21 09:40:53;;;;;;;9.13;2.75;;;;;;;31.97;41.91;99369.11;125874;1096;22775;-60
2021/06/21 09:43:31;;;;;;;7.15;3.03;;;;;;;32.02;42.11;99371.53;125798;1095;25347;-60
2021/06/21 09:46:15;;;;;;;10.40;2.80;;;;;;;32.11;40.62;99372.66;125626;1096;25477;-60
2021/06/21 09:48:48;;;;;;;8.35;2.78;;;;;;;32.15;41.00;99356.27;125947;1096;25528;-59
2021/06/21 09:51:31;;;;;;;10.63;2.58;;;;;;;32.23;41.01;99356.63;125874;1095;22783;-62
2021/06/21 09:54:06;;;;;;;8.03;2.38;;;;;;;32.35;40.22;99362.20;125590;1096;22850;-61
2021/06/21 09:56:45;;;;;;;5.68;2.83;;;;;;;32.46;40.00;99364.94;125849;1096;22836;-58
2021/06/21 09:59:23;;;;;;;6.53;2.23;;;;;;;32.52;39.95;99368.09;125809;1095;22777;-60
2021/06/21 10:02:11;;;;;;;10.53;2.60;;;;;;;32.48;39.72;99358.49;125577;1096;22795;-59
2021/06/21 10:04:46;;;;;;;6.95;2.33;;;;;;;32.51;39.58;99362.95;125806;1095;27367;-60
2021/06/21 10:07:34;;;;;;;8.65;2.73;;;;;;;32.55;39.16;99358.09;125790;1096;23020;-59
2021/06/21 10:10:08;;;;;;;7.50;2.48;;;;;;;32.59;38.88;99343.83;125568;1096;27186;-60
2021/06/21 10:12:40;;;;;;;8.67;2.60;;;;;;;32.60;39.33;99345.33;125976;1096;26292;-62
2021/06/21 10:15:14;;;;;;;6.65;2.65;;;;;;;32.66;39.10;99339.81;125774;1096;22864;-61
2021/06/21 10:17:46;;;;;;;6.63;2.48;;;;;;;32.75;38.73;99348.83;125987;1094;22800;-62
2021/06/21 10:20:18;;;;;;;8.87;2.97;;;;;;;32.81;39.19;99340.42;125699;1095;22754;-62
2021/06/21 10:22:50;;;;;;;6.87;2.97;;;;;;;32.87;38.47;99335.64;125902;1096;22883;-61
2021/06/21 10:25:21;;;;;;;6.93;2.45;;;;;;;32.94;37.98;99322.20;125823;1096;26588;-61
2021/06/21 10:27:53;;;;;;;8.33;2.55;;;;;;;32.99;38.25;99329.66;125999;1096;23316;-60
2021/06/21 10:30:26;;;;;;;5.95;2.08;;;;;;;33.06;37.28;99332.16;125788;1096;22783;-60
2021/06/21 10:32:59;;;;;;;6.00;2.20;;;;;;;33.11;36.96;99328.02;125829;1096;25564;-62
2021/06/21 10:35:32;;;;;;;6.70;1.80;;;;;;;33.14;35.88;99323.06;125931;1096;22773;-61
2021/06/21 10:38:08;;;;;;;9.88;2.48;;;;;;;33.16;36.75;99326.03;125723;1096;22774;-60
2021/06/21 10:40:59;;;;;;;5.20;1.73;;;;;;;33.24;36.33;99320.58;125799;1096;22789;-60
2021/06/21 10:43:56;;;;;;;6.13;1.80;;;;;;;33.29;35.17;99314.29;125647;1096;22807;-60
2021/06/21 10:46:32;;;;;;;8.80;2.40;;;;;;;33.31;35.80;99317.29;125140;1100;22780;-61
2021/06/21 10:49:35;;;;;;;7.68;1.93;;;;;;;33.35;35.52;99325.38;125270;1100;22788;-60
2021/06/21 10:52:33;;;;;;;8.43;1.90;;;;;;;33.37;34.71;99320.42;125178;1100;23092;-60
2021/06/21 10:55:47;;;;;;;6.03;1.70;;;;;;;33.44;35.09;99310.56;125285;1099;22782;-60
2021/06/21 10:58:46;;;;;;;5.98;2.25;;;;;;;33.43;35.01;99311.23;124883;1100;22836;-59
2021/06/21 11:01:23;;;;;;;5.70;2.27;;;;;;;33.48;35.04;99309.25;124868;1100;24496;-62
2021/06/21 11:03:55;;;;;;;7.85;2.30;;;;;;;33.48;34.82;99307.83;125064;1099;25913;-62
2021/06/21 11:06:43;;;;;;;9.00;2.40;;;;;;;33.55;35.50;99310.99;124940;1100;22815;-62
2021/06/21 11:09:34;;;;;;;;;;;;;;;33.60;35.46;99303.97;124992;1100;25144;-62
2021/06/21 11:12:43;;;;;;;6.18;2.60;;;;;;;33.62;35.83;99304.80;124771;1100;23129;-62
2021/06/21 11:15:23;;;;;;;7.20;2.60;;;;;;;33.56;35.71;99304.56;124864;1100;22960;-60
2021/06/21 11:18:04;;;;;;;7.57;3.23;;;;;;;33.57;35.86;99296.61;124884;1100;22843;-60
2021/06/21 11:20:40;;;;;;;6.65;2.88;;;;;;;33.59;35.60;99296.68;124862;1098;22835;-60
2021/06/21 11:23:34;;;;;;;6.98;3.08;;;;;;;33.61;35.64;99294.62;124980;1100;22876;-61
2021/06/21 11:26:06;;;;;;;8.75;3.30;;;;;;;33.67;36.07;99299.89;125116;1098;27363;-60
2021/06/21 11:28:39;;;;;;;7.95;3.03;;;;;;;33.68;36.21;99292.70;125196;1098;24811;-60
2021/06/21 11:31:28;;;;;;;7.77;2.80;;;;;;;33.66;35.66;99293.38;125239;1100;22821;-60
2021/06/21 11:34:02;;;;;;;11.68;2.78;;;;;;;33.69;35.33;99292.03;125244;1100;22813;-62
2021/06/21 11:36:43;;;;;;;6.90;2.10;;;;;;;33.70;35.59;99287.74;125788;1096;22858;-60
2021/06/21 11:39:25;;;;;;;7.58;3.30;;;;;;;33.72;35.29;99290.72;125757;1095;22965;-60
2021/06/21 11:42:06;;;;;;;7.45;2.80;;;;;;;33.74;35.07;99290.04;125519;1095;22782;-63
2021/06/21 11:44:51;;;;;;;8.70;3.33;;;;;;;33.76;35.62;99287.97;125780;1095;22811;-60
2021/06/21 11:47:28;;;;;;;7.38;2.95;;;;;;;33.82;35.53;99293.99;125686;1096;22810;-60
2021/06/21 11:50:16;;;;;;;9.98;2.85;;;;;;;33.79;35.26;99292.41;125591;1096;26787;-61
2021/06/21 11:52:49;;;;;;;6.70;2.98;;;;;;;33.81;35.41;99280.91;125782;1096;22810;-61
2021/06/21 11:55:21;;;;;;;9.00;3.20;;;;;;;33.85;35.50;99286.13;125549;1095;27195;-60
2021/06/21 11:58:00;;;;;;;8.18;2.85;;;;;;;33.85;35.23;99281.06;125777;1096;24499;-60